Time;durP1;ratioP1;P1;durP2;ratioP2;P2;SDS_P1;SDS_P2;PMS_P1;PMS_P2;Temp;Humidity;BMP_temperature;BMP_pressure;BME280_temperature;BME280_humidity;BME280_pressure;Samples;Min_cycle;Max_cycle;Signal;HPM_P1;HPM_P2
2020/12/25 00:00:49;;;;;;;3.57;2.40;;;7.60;99.90;;;;;;6160177;23;20177;-81
2020/12/25 00:03:15;;;;;;;4.17;2.60;;;7.60;99.90;;;;;;6160986;23;20225;-81
2020/12/25 00:05:45;;;;;;;4.30;2.72;;;7.60;99.90;;;;;;6134976;23;20664;-80
2020/12/25 00:08:13;;;;;;;3.20;2.90;;;7.60;99.90;;;;;;6135249;23;20146;-81
2020/12/25 00:10:41;;;;;;;6.15;2.92;;;7.60;99.90;;;;;;6161308;23;20143;-81
2020/12/25 00:13:07;;;;;;;2.85;2.15;;;7.50;99.90;;;;;;6166924;23;20182;-80
2020/12/25 00:15:33;;;;;;;4.50;3.30;;;7.50;99.90;;;;;;6159993;23;20174;-81
2020/12/25 00:17:59;;;;;;;5.63;3.27;;;7.50;99.90;;;;;;6155187;23;20599;-81
2020/12/25 00:20:25;;;;;;;4.63;3.70;;;7.50;99.90;;;;;;6154316;23;20209;-80
2020/12/25 00:22:50;;;;;;;5.20;4.27;;;7.50;99.90;;;;;;6155965;23;20522;-80
2020/12/25 00:25:16;;;;;;;5.13;4.57;;;7.50;99.90;;;;;;6159709;23;20174;-81
2020/12/25 00:27:43;;;;;;;4.67;4.27;;;7.50;99.90;;;;;;6172242;23;20178;-80
2020/12/25 00:30:08;;;;;;;4.35;3.95;;;7.50;99.90;;;;;;6169065;23;20161;-81
2020/12/25 00:32:34;;;;;;;4.17;3.57;;;7.50;99.90;;;;;;6167873;23;20143;-81
2020/12/25 00:35:00;;;;;;;4.10;3.60;;;7.50;99.90;;;;;;6164007;23;20600;-81
2020/12/25 00:37:28;;;;;;;4.10;3.80;;;7.50;99.90;;;;;;6137179;23;21048;-81
2020/12/25 00:39:54;;;;;;;6.07;4.40;;;7.50;99.90;;;;;;6161658;23;20131;-81
2020/12/25 00:42:19;;;;;;;4.30;2.90;;;7.60;99.90;;;;;;6160054;23;20562;-81
2020/12/25 00:44:46;;;;;;;5.47;4.97;;;7.60;99.90;;;;;;6165868;23;20562;-81
2020/12/25 00:47:11;;;;;;;4.53;3.37;;;7.50;99.90;;;;;;6169339;23;20542;-81
2020/12/25 00:49:37;;;;;;;4.47;4.07;;;7.60;99.90;;;;;;6167854;23;20525;-81
2020/12/25 00:52:03;;;;;;;6.75;4.60;;;7.60;99.90;;;;;;6164870;23;20537;-81
2020/12/25 00:54:30;;;;;;;4.95;3.20;;;7.60;99.90;;;;;;6165117;23;20197;-81
2020/12/25 00:57:15;;;;;;;3.67;3.10;;;7.60;99.90;;;;;;6163236;23;20131;-81
2020/12/25 01:00:04;;;;;;;4.88;3.75;;;7.60;99.90;;;;;;6154574;23;20154;-81
2020/12/25 01:02:30;;;;;;;3.88;3.20;;;7.60;99.90;;;;;;6168137;23;20146;-80
2020/12/25 01:04:56;;;;;;;3.95;3.17;;;7.70;99.90;;;;;;6163519;23;20182;-81
2020/12/25 01:07:22;;;;;;;4.40;4.00;;;7.70;99.90;;;;;;6171436;23;20166;-81
2020/12/25 01:09:48;;;;;;;4.07;3.50;;;7.70;99.90;;;;;;6166630;23;20150;-81
2020/12/25 01:12:14;;;;;;;3.87;2.73;;;7.70;99.90;;;;;;6142841;23;20157;-81
2020/12/25 01:14:40;;;;;;;3.27;2.67;;;7.70;99.90;;;;;;6169106;23;20562;-80
2020/12/25 01:17:05;;;;;;;4.50;3.10;;;7.70;99.90;;;;;;6169528;23;20146;-80
2020/12/25 01:19:31;;;;;;;5.07;3.00;;;7.70;99.90;;;;;;6165902;23;20242;-81
2020/12/25 01:21:57;;;;;;;6.70;3.60;;;7.70;99.90;;;;;;6166893;23;20158;-81
2020/12/25 01:24:26;;;;;;;4.57;3.00;;;7.70;99.90;;;;;;6169135;23;20169;-81
2020/12/25 01:26:52;;;;;;;5.63;3.65;;;7.70;99.90;;;;;;6160969;23;20178;-81
2020/12/25 01:29:17;;;;;;;4.80;3.33;;;7.70;99.90;;;;;;6159902;23;20153;-81
2020/12/25 01:31:43;;;;;;;4.20;3.27;;;7.70;99.90;;;;;;6155006;23;20161;-80
2020/12/25 01:34:09;;;;;;;7.20;3.90;;;7.70;99.90;;;;;;6157885;23;20149;-80
2020/12/25 01:36:35;;;;;;;4.47;3.57;;;7.70;99.90;;;;;;6154957;23;20162;-81
2020/12/25 01:39:00;;;;;;;5.73;3.80;;;7.70;99.90;;;;;;6163818;23;20147;-81
2020/12/25 01:41:26;;;;;;;5.80;4.53;;;7.70;99.90;;;;;;6158879;23;20150;-81
2020/12/25 01:43:52;;;;;;;8.68;5.50;;;7.80;99.90;;;;;;6153031;23;20153;-81
2020/12/25 01:46:18;;;;;;;5.80;4.07;;;7.80;99.90;;;;;;6151160;23;20178;-81
2020/12/25 01:48:44;;;;;;;4.93;4.32;;;7.70;99.90;;;;;;6152012;23;20208;-81
2020/12/25 01:51:14;;;;;;;6.00;4.63;;;7.80;99.90;;;;;;6152200;23;20142;-81
2020/12/25 01:53:41;;;;;;;6.22;5.15;;;7.70;99.90;;;;;;6159717;23;20158;-80
2020/12/25 01:56:07;;;;;;;4.90;4.38;;;7.80;99.90;;;;;;6156032;23;20170;-80
2020/12/25 01:58:36;;;;;;;9.80;4.55;;;7.70;99.90;;;;;;6156535;23;20530;-81
2020/12/25 02:01:02;;;;;;;4.35;3.95;;;7.70;99.90;;;;;;6153209;23;20154;-80
2020/12/25 02:03:28;;;;;;;4.70;3.60;;;7.70;99.90;;;;;;6150883;23;20212;-80
2020/12/25 02:05:54;;;;;;;5.22;3.83;;;7.70;99.90;;;;;;6152607;23;20264;-81
2020/12/25 02:08:19;;;;;;;4.50;4.10;;;7.70;99.90;;;;;;6152061;23;20232;-81
2020/12/25 02:10:45;;;;;;;5.30;4.00;;;7.60;99.90;;;;;;6150534;23;20146;-81
2020/12/25 02:13:11;;;;;;;6.17;4.00;;;7.60;99.90;;;;;;6152385;23;20142;-81
2020/12/25 02:15:37;;;;;;;4.88;3.63;;;7.50;99.90;;;;;;6151779;23;20577;-81
2020/12/25 02:18:04;;;;;;;4.27;3.40;;;7.50;99.90;;;;;;6156015;23;20150;-81
2020/12/25 02:20:31;;;;;;;4.95;3.95;;;7.40;99.90;;;;;;6127148;23;20955;-81
2020/12/25 02:22:57;;;;;;;4.50;2.90;;;7.30;99.90;;;;;;6153202;23;20218;-81
2020/12/25 02:25:23;;;;;;;5.75;3.78;;;7.30;99.90;;;;;;6153404;23;20561;-81
2020/12/25 02:27:49;;;;;;;5.57;3.10;;;7.20;99.90;;;;;;6155499;23;20193;-80
2020/12/25 02:30:14;;;;;;;4.60;3.90;;;7.20;99.90;;;;;;6165098;23;21066;-80
2020/12/25 02:32:41;;;;;;;6.67;4.37;;;7.10;99.90;;;;;;6157377;23;20582;-80
2020/12/25 02:35:07;;;;;;;4.10;3.70;;;7.10;99.90;;;;;;6130534;23;20585;-81
2020/12/25 02:37:33;;;;;;;5.70;3.75;;;7.10;99.90;;;;;;6155547;23;20151;-81
2020/12/25 02:39:59;;;;;;;4.45;4.05;;;7.00;99.90;;;;;;6157026;23;20147;-80
2020/12/25 02:42:25;;;;;;;5.75;3.53;;;7.00;99.90;;;;;;6155159;23;20225;-81
2020/12/25 02:44:51;;;;;;;5.63;4.65;;;7.00;99.90;;;;;;6154687;23;20166;-80
2020/12/25 02:47:17;;;;;;;5.47;4.27;;;7.00;99.90;;;;;;6153368;23;20147;-81
2020/12/25 02:49:43;;;;;;;4.80;4.32;;;7.00;99.90;;;;;;6152406;23;20151;-80
2020/12/25 02:52:09;;;;;;;6.30;5.70;;;7.00;99.90;;;;;;6151036;23;20161;-81
2020/12/25 02:54:35;;;;;;;6.20;5.60;;;7.00;99.90;;;;;;6158261;23;20589;-80
2020/12/25 02:57:02;;;;;;;6.53;5.07;;;7.00;99.90;;;;;;6156135;23;20526;-80
2020/12/25 02:59:28;;;;;;;7.57;6.75;;;6.90;99.90;;;;;;6152811;23;21098;-80
2020/12/25 03:01:54;;;;;;;5.33;4.50;;;6.90;99.90;;;;;;6159747;23;20143;-81
2020/12/25 03:04:21;;;;;;;7.68;5.68;;;6.80;99.90;;;;;;6157567;23;20154;-81
2020/12/25 03:06:47;;;;;;;9.50;6.00;;;6.80;99.90;;;;;;6156855;23;20170;-81
2020/12/25 03:09:14;;;;;;;5.45;4.20;;;6.80;99.90;;;;;;6159315;23;20155;-81
2020/12/25 03:11:41;;;;;;;6.32;5.13;;;6.80;99.90;;;;;;6161728;23;20150;-81
2020/12/25 03:14:09;;;;;;;6.35;4.57;;;6.70;99.90;;;;;;6162201;23;20146;-81
2020/12/25 03:16:35;;;;;;;8.23;4.15;;;6.70;99.90;;;;;;6160544;23;20237;-81
2020/12/25 03:19:00;;;;;;;4.50;4.10;;;6.70;99.90;;;;;;6161577;23;20155;-81
2020/12/25 03:21:28;;;;;;;5.90;4.32;;;6.60;99.90;;;;;;6159886;23;20157;-81
2020/12/25 03:23:54;;;;;;;5.10;3.75;;;6.60;99.90;;;;;;6160015;23;20166;-81
2020/12/25 03:26:20;;;;;;;5.40;3.80;;;6.60;99.90;;;;;;6135962;23;20838;-81
2020/12/25 03:28:45;;;;;;;7.85;5.00;;;6.50;99.90;;;;;;6161528;23;20149;-81
2020/12/25 03:31:11;;;;;;;7.60;4.40;;;6.50;99.90;;;;;;6162348;23;20480;-81
2020/12/25 03:33:37;;;;;;;5.30;4.80;;;6.50;99.90;;;;;;6162886;23;20147;-80
2020/12/25 03:36:03;;;;;;;4.87;3.00;;;6.50;99.90;;;;;;6160971;23;20623;-81
2020/12/25 03:38:29;;;;;;;4.30;3.90;;;6.50;99.90;;;;;;6165950;23;20527;-81
2020/12/25 03:40:55;;;;;;;5.10;4.63;;;6.50;99.90;;;;;;6160242;23;20534;-81
2020/12/25 03:43:20;;;;;;;4.80;4.00;;;6.50;99.90;;;;;;6161722;23;20613;-81
2020/12/25 03:45:46;;;;;;;4.97;3.83;;;6.50;99.90;;;;;;6159391;23;20178;-81
2020/12/25 03:48:13;;;;;;;6.30;4.17;;;6.50;99.90;;;;;;6159771;23;20165;-81
2020/12/25 03:50:39;;;;;;;4.28;3.75;;;6.50;99.90;;;;;;6132870;23;20158;-80
2020/12/25 03:53:05;;;;;;;3.93;3.50;;;6.50;99.90;;;;;;6157383;23;20155;-80
2020/12/25 03:55:30;;;;;;;4.90;2.73;;;6.60;99.90;;;;;;6157116;23;21172;-81
2020/12/25 03:57:56;;;;;;;3.73;2.57;;;6.60;99.90;;;;;;6157338;23;20540;-81
2020/12/25 04:00:22;;;;;;;4.87;2.77;;;6.60;99.90;;;;;;6154832;23;20561;-81
2020/12/25 04:02:52;;;;;;;9.35;2.85;;;6.60;99.90;;;;;;6157155;23;20205;-80
2020/12/25 04:05:19;;;;;;;4.90;2.47;;;6.70;99.90;;;;;;6155284;23;20249;-81
2020/12/25 04:07:44;;;;;;;2.67;1.97;;;6.70;99.90;;;;;;6132942;23;20143;-80
2020/12/25 04:10:10;;;;;;;4.77;3.50;;;6.60;99.90;;;;;;6156060;23;20530;-81
2020/12/25 04:12:36;;;;;;;6.67;1.90;;;6.70;99.90;;;;;;6155628;23;20154;-80
2020/12/25 04:15:02;;;;;;;3.20;1.80;;;6.70;99.90;;;;;;6155618;23;20644;-80
2020/12/25 04:17:27;;;;;;;3.17;1.73;;;6.70;99.90;;;;;;6154374;23;20165;-81
2020/12/25 04:19:53;;;;;;;3.40;1.53;;;6.70;99.90;;;;;;6155338;23;20530;-81
2020/12/25 04:22:19;;;;;;;5.00;1.80;;;6.70;99.90;;;;;;6153968;23;20641;-81
2020/12/25 04:24:45;;;;;;;5.53;1.95;;;6.70;99.90;;;;;;6154704;23;20186;-81
2020/12/25 04:27:11;;;;;;;3.60;2.30;;;6.70;99.90;;;;;;6154479;23;20150;-81
2020/12/25 04:29:37;;;;;;;3.40;1.50;;;6.70;99.90;;;;;;6153774;23;20526;-81
2020/12/25 04:32:03;;;;;;;5.70;2.35;;;6.70;99.90;;;;;;6153180;23;20161;-81
2020/12/25 04:34:29;;;;;;;5.27;2.03;;;6.70;99.90;;;;;;6153225;23;20885;-81
2020/12/25 04:36:55;;;;;;;4.70;1.53;;;6.70;99.90;;;;;;6151764;23;20549;-76
2020/12/25 04:39:20;;;;;;;3.20;1.63;;;6.70;99.90;;;;;;6150684;23;20161;-76
2020/12/25 04:41:46;;;;;;;8.03;2.03;;;6.70;99.90;;;;;;6150943;23;20147;-76
2020/12/25 04:44:12;;;;;;;6.77;2.20;;;6.70;99.90;;;;;;6151722;23;20613;-76
2020/12/25 04:46:38;;;;;;;5.30;2.17;;;6.70;99.90;;;;;;6158352;23;20150;-76
2020/12/25 04:49:04;;;;;;;5.77;2.30;;;6.60;99.90;;;;;;6126088;23;20488;-76
2020/12/25 04:51:30;;;;;;;3.35;1.35;;;6.60;99.90;;;;;;6151483;23;20530;-76
2020/12/25 04:53:55;;;;;;;3.43;1.57;;;6.60;99.90;;;;;;6152834;23;20150;-76
2020/12/25 04:56:23;;;;;;;4.07;3.40;;;6.60;99.90;;;;;;6152803;23;20589;-76
2020/12/25 04:58:50;;;;;;;4.85;1.80;;;6.50;99.90;;;;;;6150452;23;20476;-77
2020/12/25 05:01:16;;;;;;;2.92;1.63;;;6.50;99.90;;;;;;6152463;23;20142;-77
2020/12/25 05:03:45;;;;;;;3.47;1.40;;;6.40;99.90;;;;;;6152098;23;20153;-76
2020/12/25 05:06:19;;;;;;;3.60;1.77;;;6.30;99.90;;;;;;6152496;23;20174;-76
2020/12/25 05:08:49;;;;;;;5.45;1.60;;;6.30;99.90;;;;;;6150481;23;20139;-76
2020/12/25 05:11:17;;;;;;;3.75;1.58;;;6.20;99.90;;;;;;6101818;23;20534;-76
2020/12/25 05:13:54;;;;;;;3.78;1.70;;;6.20;99.90;;;;;;6151100;23;20168;-76
2020/12/25 05:16:21;;;;;;;5.15;2.90;;;6.10;99.90;;;;;;6126339;23;20189;-76
2020/12/25 05:18:49;;;;;;;6.88;2.47;;;6.10;99.90;;;;;;6151495;23;20494;-76
2020/12/25 05:21:17;;;;;;;3.63;1.55;;;6.00;99.90;;;;;;6126565;23;20151;-76
2020/12/25 05:23:44;;;;;;;2.65;1.67;;;6.00;99.90;;;;;;6156481;23;20225;-76
2020/12/25 05:26:11;;;;;;;5.05;1.60;;;5.90;99.90;;;;;;6151995;23;20170;-76
2020/12/25 05:28:39;;;;;;;4.35;1.42;;;5.90;99.90;;;;;;6150408;23;20153;-76
2020/12/25 05:31:06;;;;;;;4.43;1.35;;;5.80;99.90;;;;;;6151714;23;20205;-76
2020/12/25 05:33:33;;;;;;;4.75;1.63;;;5.80;99.90;;;;;;6152514;23;20155;-76
2020/12/25 05:35:58;;;;;;;2.42;1.15;;;5.70;99.90;;;;;;6151043;23;20182;-76
2020/12/25 05:38:27;;;;;;;3.57;1.70;;;5.70;99.90;;;;;;6150312;23;20146;-76
2020/12/25 05:40:54;;;;;;;6.82;2.60;;;5.60;99.90;;;;;;6149685;23;20581;-76
2020/12/25 05:43:20;;;;;;;4.47;1.75;;;5.50;99.90;;;;;;6149421;23;20151;-76
2020/12/25 05:45:46;;;;;;;9.05;2.00;;;5.50;99.90;;;;;;6125007;23;20229;-76
2020/12/25 05:48:13;;;;;;;5.47;1.70;;;5.50;99.90;;;;;;6149204;23;20170;-76
2020/12/25 05:50:40;;;;;;;7.82;2.85;;;5.40;99.90;;;;;;6150180;23;20146;-77
2020/12/25 05:53:06;;;;;;;5.45;1.77;;;5.40;99.90;;;;;;6125860;23;20158;-76
2020/12/25 05:55:32;;;;;;;5.95;2.20;;;5.40;99.90;;;;;;6125419;23;20509;-76
2020/12/25 05:57:58;;;;;;;6.65;1.90;;;5.30;99.90;;;;;;6151572;23;20146;-76
2020/12/25 06:00:26;;;;;;;4.25;2.00;;;5.30;99.90;;;;;;6156482;23;20596;-76
2020/12/25 06:02:57;;;;;;;4.05;2.20;;;5.30;99.90;;;;;;6151829;23;20577;-76
2020/12/25 06:05:24;;;;;;;3.90;2.42;;;5.30;99.90;;;;;;6152958;23;20166;-76
2020/12/25 06:07:51;;;;;;;7.30;2.08;;;5.30;99.90;;;;;;6126627;23;20154;-76
2020/12/25 06:10:19;;;;;;;3.83;1.98;;;5.30;99.90;;;;;;6151097;23;20157;-76
2020/12/25 06:12:46;;;;;;;3.88;1.88;;;5.20;99.90;;;;;;6150870;23;20296;-76
2020/12/25 06:15:23;;;;;;;6.55;2.20;;;5.20;99.90;;;;;;6150090;23;20221;-77
2020/12/25 06:18:26;;;;;;;6.28;2.00;;;5.30;99.90;;;;;;6164596;23;20158;-76
2020/12/25 06:20:57;;;;;;;4.95;1.30;;;5.30;99.90;;;;;;6152416;23;20146;-76
2020/12/25 06:23:25;;;;;;;2.83;1.20;;;5.30;99.90;;;;;;6125470;23;20147;-77
2020/12/25 06:25:53;;;;;;;2.90;1.38;;;5.30;99.90;;;;;;6125525;23;20170;-76
2020/12/25 06:28:19;;;;;;;5.57;1.45;;;5.30;99.90;;;;;;6149079;23;20154;-76
2020/12/25 06:30:46;;;;;;;5.32;1.88;;;5.40;99.90;;;;;;6151976;23;20150;-76
2020/12/25 06:33:12;;;;;;;3.78;1.65;;;5.40;99.90;;;;;;6152405;23;20529;-76
2020/12/25 06:35:43;;;;;;;3.80;1.30;;;5.40;99.90;;;;;;6151551;23;20182;-76
2020/12/25 06:38:15;;;;;;;3.15;1.23;;;5.40;99.90;;;;;;6155577;23;20157;-76
2020/12/25 06:40:41;;;;;;;3.65;1.33;;;5.50;99.90;;;;;;6126177;23;20154;-76
2020/12/25 06:43:20;;;;;;;4.70;1.58;;;5.50;99.90;;;;;;6151494;23;20189;-76
2020/12/25 06:45:57;;;;;;;4.75;1.20;;;5.50;99.90;;;;;;6152811;23;20175;-76
2020/12/25 06:48:27;;;;;;;4.65;1.70;;;5.60;99.90;;;;;;6150692;23;20154;-77
2020/12/25 06:50:55;;;;;;;4.22;1.90;;;5.60;99.90;;;;;;6150781;23;20174;-76
2020/12/25 06:53:54;;;;;;;3.80;2.00;;;5.70;99.90;;;;;;6126797;23;20157;-76
2020/12/25 06:56:20;;;;;;;4.10;1.52;;;5.70;99.90;;;;;;6132414;23;20495;-76
2020/12/25 06:58:54;;;;;;;3.90;1.40;;;5.70;99.90;;;;;;6101994;23;20157;-76
2020/12/25 07:01:43;;;;;;;5.13;1.50;;;5.70;99.90;;;;;;6153095;23;20518;-76
2020/12/25 07:04:23;;;;;;;4.28;2.05;;;5.70;99.90;;;;;;6152864;23;20130;-76
2020/12/25 07:06:56;;;;;;;2.75;1.10;;;5.60;99.90;;;;;;6151030;23;20154;-77
2020/12/25 07:09:33;;;;;;;5.32;1.45;;;5.70;99.90;;;;;;6150490;23;20142;-76
2020/12/25 07:12:05;;;;;;;3.78;1.25;;;5.60;99.90;;;;;;6151665;23;20185;-76
2020/12/25 07:14:30;;;;;;;4.75;1.48;;;5.60;99.90;;;;;;6157061;23;20202;-76
2020/12/25 07:16:56;;;;;;;6.80;1.57;;;5.50;99.90;;;;;;6127311;23;20660;-76
2020/12/25 07:19:22;;;;;;;2.23;1.13;;;5.50;99.90;;;;;;6152840;23;20526;-76
2020/12/25 07:21:48;;;;;;;5.43;1.20;;;5.40;99.90;;;;;;6152756;23;20146;-74
2020/12/25 07:24:14;;;;;;;4.67;1.30;;;5.40;99.90;;;;;;6153290;23;20155;-76
2020/12/25 07:26:40;;;;;;;6.32;2.05;;;5.40;99.90;;;;;;6127696;23;20147;-76
2020/12/25 07:29:13;;;;;;;6.25;1.80;;;5.40;99.90;;;;;;6152520;23;20155;-76
2020/12/25 07:31:48;;;;;;;6.50;2.28;;;5.40;99.90;;;;;;6127155;23;20142;-76
2020/12/25 07:34:25;;;;;;;5.15;1.25;;;5.40;99.90;;;;;;6153570;23;20150;-76
2020/12/25 07:36:53;;;;;;;6.32;1.50;;;5.40;99.90;;;;;;6153547;23;20528;-76
2020/12/25 07:39:21;;;;;;;6.40;1.38;;;5.40;99.90;;;;;;6126691;23;20229;-76
2020/12/25 07:41:47;;;;;;;5.72;1.80;;;5.40;99.90;;;;;;6149130;23;20139;-76
2020/12/25 07:57:50;;;;;;;4.13;1.60;;;5.70;99.90;;;;;;6154323;23;20209;-77
2020/12/25 08:00:15;;;;;;;4.15;1.42;;;5.80;99.90;;;;;;6153498;23;20158;-77
2020/12/25 08:02:42;;;;;;;4.73;1.30;;;5.90;99.90;;;;;;6153627;23;20143;-76
2020/12/25 08:05:09;;;;;;;4.25;1.50;;;5.90;99.90;;;;;;6155930;23;20170;-76
2020/12/25 08:07:40;;;;;;;6.28;1.65;;;6.00;99.90;;;;;;6153042;23;20170;-77
2020/12/25 08:10:12;;;;;;;4.38;1.63;;;6.00;99.90;;;;;;6102554;23;20146;-77
2020/12/25 08:12:42;;;;;;;3.83;1.52;;;6.10;99.90;;;;;;6102537;23;20477;-77
2020/12/25 08:15:08;;;;;;;7.65;1.50;;;6.10;99.90;;;;;;6102718;23;20554;-77
2020/12/25 08:17:34;;;;;;;5.80;1.90;;;6.10;99.90;;;;;;6152865;23;20154;-76
2020/12/25 08:20:03;;;;;;;8.52;2.20;;;6.10;99.90;;;;;;6127342;23;20176;-76
2020/12/25 08:22:29;;;;;;;6.95;1.42;;;6.10;99.90;;;;;;6127789;23;20154;-76
2020/12/25 08:24:56;;;;;;;3.97;1.73;;;6.20;99.90;;;;;;6127261;23;20166;-76
2020/12/25 08:27:22;;;;;;;3.10;1.10;;;6.20;99.90;;;;;;6102900;23;20201;-76
2020/12/25 08:29:51;;;;;;;3.30;1.00;;;6.20;99.90;;;;;;6130210;23;20173;-76
2020/12/25 08:32:17;;;;;;;5.70;1.00;;;6.20;99.90;;;;;;6102712;23;20883;-76
2020/12/25 08:34:43;;;;;;;4.53;1.20;;;6.20;99.90;;;;;;6153140;23;20174;-76
2020/12/25 08:37:11;;;;;;;5.93;1.07;;;6.20;99.90;;;;;;6127797;23;21107;-76
2020/12/25 08:39:37;;;;;;;6.50;1.48;;;6.20;99.90;;;;;;6126645;23;20618;-76
2020/12/25 08:42:03;;;;;;;3.53;1.10;;;6.20;99.90;;;;;;6102034;23;20146;-76
2020/12/25 08:44:29;;;;;;;3.00;1.03;;;6.30;99.90;;;;;;6078142;23;20193;-76
2020/12/25 08:47:07;;;;;;;3.70;1.10;;;6.30;99.90;;;;;;6152703;23;20525;-76
2020/12/25 08:49:33;;;;;;;3.90;1.08;;;6.30;99.90;;;;;;6125891;23;20244;-76
2020/12/25 08:51:59;;;;;;;3.53;1.00;;;6.30;99.90;;;;;;6078828;23;20154;-76
2020/12/25 08:54:26;;;;;;;4.65;1.20;;;6.30;99.90;;;;;;6103309;23;20640;-76
2020/12/25 08:56:52;;;;;;;2.60;1.10;;;6.30;99.90;;;;;;6153384;23;20177;-76
2020/12/25 08:59:20;;;;;;;4.53;0.90;;;6.40;99.90;;;;;;6101612;23;20159;-76
2020/12/25 09:01:48;;;;;;;6.05;1.13;;;6.40;99.90;;;;;;6151647;23;20150;-76
2020/12/25 09:04:16;;;;;;;3.17;1.35;;;6.40;99.90;;;;;;6126790;23;20166;-76
2020/12/25 09:06:42;;;;;;;3.47;1.08;;;6.40;99.90;;;;;;6131389;23;20205;-76
2020/12/25 09:09:09;;;;;;;2.28;0.90;;;6.40;99.90;;;;;;6152257;23;20151;-76
2020/12/25 09:11:40;;;;;;;4.38;1.23;;;6.40;99.90;;;;;;6126531;23;20624;-76
2020/12/25 09:14:12;;;;;;;5.45;1.02;;;6.40;99.90;;;;;;6152489;23;20130;-76
2020/12/25 09:16:38;;;;;;;2.38;0.88;;;6.50;99.90;;;;;;6124727;23;20268;-76
2020/12/25 09:19:03;;;;;;;3.50;1.70;;;6.50;99.90;;;;;;6125602;23;20581;-76
2020/12/25 09:21:29;;;;;;;2.90;1.33;;;6.50;99.90;;;;;;6151841;23;20148;-76
2020/12/25 09:23:57;;;;;;;4.37;1.00;;;6.60;99.90;;;;;;6101464;23;20545;-77
2020/12/25 09:26:23;;;;;;;5.18;1.20;;;6.60;99.90;;;;;;6125958;23;20562;-77
2020/12/25 09:28:52;;;;;;;1.90;0.93;;;6.60;99.90;;;;;;6101060;23;20476;-76
2020/12/25 09:31:20;;;;;;;5.22;2.25;;;6.60;99.90;;;;;;6102372;23;20565;-76
2020/12/25 09:33:45;;;;;;;6.57;1.00;;;6.70;99.90;;;;;;6152216;23;20208;-77
2020/12/25 09:36:11;;;;;;;1.63;0.90;;;6.80;99.90;;;;;;6151597;23;20174;-77
2020/12/25 09:38:43;;;;;;;2.50;0.80;;;6.80;99.90;;;;;;6124761;23;20154;-76
2020/12/25 09:41:11;;;;;;;1.70;0.75;;;6.90;99.90;;;;;;6125848;23;20181;-77
2020/12/25 09:43:37;;;;;;;2.50;0.82;;;7.00;99.90;;;;;;6132170;23;20148;-76
2020/12/25 09:46:03;;;;;;;4.07;0.80;;;7.00;99.90;;;;;;6152150;23;20790;-76
2020/12/25 09:48:29;;;;;;;3.08;1.48;;;7.10;99.90;;;;;;6152350;23;20151;-77
2020/12/25 09:50:55;;;;;;;3.80;0.90;;;7.10;99.90;;;;;;6124596;23;20165;-77
2020/12/25 09:53:21;;;;;;;2.17;0.90;;;7.20;99.90;;;;;;6152259;23;20154;-76
2020/12/25 09:55:50;;;;;;;4.10;1.00;;;7.20;99.90;;;;;;6152094;23;20217;-76
2020/12/25 09:58:16;;;;;;;3.67;1.00;;;7.30;99.90;;;;;;6125198;23;20886;-77
2020/12/25 10:00:42;;;;;;;2.42;1.20;;;7.30;99.90;;;;;;6125604;23;20151;-77
2020/12/25 10:03:08;;;;;;;4.23;1.10;;;7.30;99.90;;;;;;6151746;23;20585;-77
2020/12/25 10:05:33;;;;;;;1.70;0.80;;;7.40;99.90;;;;;;6125572;23;20568;-76
2020/12/25 10:07:59;;;;;;;2.80;1.17;;;7.40;99.90;;;;;;6125473;23;20142;-76
2020/12/25 10:10:25;;;;;;;4.33;1.00;;;7.40;99.90;;;;;;6125619;23;20182;-76
2020/12/25 10:12:52;;;;;;;5.37;1.10;;;7.50;99.90;;;;;;6125761;23;20522;-76
2020/12/25 10:15:18;;;;;;;2.00;1.10;;;7.50;99.90;;;;;;6125901;23;20897;-77
2020/12/25 10:17:44;;;;;;;2.40;1.30;;;7.50;99.90;;;;;;6151672;23;20266;-77
2020/12/25 10:20:10;;;;;;;5.23;1.00;;;7.50;99.90;;;;;;6130623;23;20208;-77
2020/12/25 10:22:36;;;;;;;6.30;1.40;;;7.50;99.90;;;;;;6101132;23;21021;-76
2020/12/25 10:25:03;;;;;;;3.50;1.17;;;7.50;99.90;;;;;;6125775;23;20294;-78
2020/12/25 10:27:32;;;;;;;3.85;1.60;;;7.60;99.90;;;;;;6124509;23;20549;-77
2020/12/25 10:29:58;;;;;;;4.43;1.60;;;7.60;99.90;;;;;;6101540;23;20490;-77
2020/12/25 10:32:24;;;;;;;5.47;2.00;;;7.70;99.90;;;;;;6151844;23;20155;-77
2020/12/25 10:34:49;;;;;;;2.80;1.33;;;7.80;99.90;;;;;;6124850;23;20566;-77
2020/12/25 10:37:16;;;;;;;4.00;1.20;;;7.90;99.90;;;;;;6122318;23;20223;-82
2020/12/25 10:39:42;;;;;;;3.45;1.55;;;7.90;99.90;;;;;;6101534;23;20167;-82
2020/12/25 10:42:14;;;;;;;8.13;1.20;;;8.00;99.90;;;;;;6121955;23;20152;-82
2020/12/25 10:44:45;;;;;;;2.92;1.58;;;8.10;99.90;;;;;;6120847;23;21102;-82
2020/12/25 10:47:19;;;;;;;3.88;1.63;;;8.20;99.90;;;;;;6120353;23;20167;-83
2020/12/25 10:49:58;;;;;;;5.40;1.63;;;8.20;99.90;;;;;;6119835;23;20163;-82
2020/12/25 10:52:29;;;;;;;7.53;1.95;;;8.30;99.90;;;;;;6119532;23;20209;-82
2020/12/25 10:54:55;;;;;;;3.45;1.80;;;8.30;99.90;;;;;;6096773;23;20589;-82
2020/12/25 10:57:21;;;;;;;2.60;1.50;;;8.30;99.90;;;;;;6122313;23;20186;-82
2020/12/25 10:59:58;;;;;;;3.47;2.58;;;8.30;99.90;;;;;;6122508;23;20598;-82
2020/12/25 11:02:33;;;;;;;5.22;1.67;;;8.30;99.90;;;;;;6120638;23;20151;-83
2020/12/25 11:04:59;;;;;;;1.98;1.10;;;8.40;99.90;;;;;;6120282;23;20194;-83
2020/12/25 11:07:25;;;;;;;4.78;1.70;;;8.40;99.90;;;;;;6121850;23;20629;-82
2020/12/25 11:09:51;;;;;;;4.03;1.87;;;8.40;99.90;;;;;;6122264;23;20154;-81
2020/12/25 11:12:20;;;;;;;2.63;1.60;;;8.40;99.90;;;;;;6122066;23;20563;-81
2020/12/25 11:15:04;;;;;;;2.40;1.40;;;8.50;99.90;;;;;;6122263;23;20504;-81
2020/12/25 11:17:45;;;;;;;2.17;1.25;;;8.50;99.90;;;;;;6127122;23;20210;-81
2020/12/25 11:20:22;;;;;;;3.47;1.70;;;8.60;99.90;;;;;;6122119;23;20531;-81
2020/12/25 11:22:55;;;;;;;3.75;1.60;;;8.60;99.90;;;;;;6074078;23;20201;-82
2020/12/25 11:25:29;;;;;;;4.78;2.15;;;8.60;99.90;;;;;;6123681;23;20143;-82
2020/12/25 11:27:57;;;;;;;5.03;2.40;;;8.60;99.90;;;;;;6122149;23;20182;-81
2020/12/25 11:30:26;;;;;;;4.03;1.27;;;8.60;99.90;;;;;;6122107;23;20150;-81
2020/12/25 11:32:55;;;;;;;4.30;1.45;;;8.60;99.90;;;;;;6123306;23;20834;-81
2020/12/25 11:35:23;;;;;;;3.50;1.63;;;8.60;99.90;;;;;;6123620;23;20194;-81
2020/12/25 11:38:06;;;;;;;3.60;2.28;;;8.60;99.90;;;;;;6178560;23;20161;-81
2020/12/25 11:40:44;;;;;;;3.85;2.33;;;8.60;99.90;;;;;;6182712;23;20459;-81
2020/12/25 11:43:33;;;;;;;5.18;1.83;;;8.70;99.90;;;;;;6182757;23;20145;-80
2020/12/25 11:46:19;;;;;;;3.95;1.77;;;8.80;99.90;;;;;;6182632;23;20165;-81
2020/12/25 11:48:55;;;;;;;6.13;2.20;;;8.90;99.90;;;;;;6156147;23;20168;-80
2020/12/25 11:51:42;;;;;;;4.53;2.03;;;9.00;99.90;;;;;;6182532;23;20134;-81
2020/12/25 11:54:16;;;;;;;6.13;1.80;;;9.00;99.90;;;;;;6162225;23;20484;-81
2020/12/25 11:57:15;;;;;;;3.20;1.63;;;9.10;99.90;;;;;;6156286;23;20493;-81
2020/12/25 11:59:46;;;;;;;4.53;1.50;;;9.10;99.90;;;;;;6157380;23;20141;-81
2020/12/25 12:02:12;;;;;;;3.38;1.23;;;9.10;99.90;;;;;;6132569;23;20709;-81
2020/12/25 12:04:50;;;;;;;5.22;1.60;;;9.10;99.90;;;;;;6136100;23;20126;-81
2020/12/25 12:07:22;;;;;;;5.45;1.85;;;9.20;99.90;;;;;;6155678;23;20252;-81
2020/12/25 12:10:03;;;;;;;5.40;1.50;;;9.20;99.90;;;;;;6182733;23;20164;-83
2020/12/25 12:12:35;;;;;;;7.45;2.30;;;9.20;99.90;;;;;;6155538;23;20217;-82
2020/12/25 12:15:33;;;;;;;5.03;1.48;;;9.30;99.90;;;;;;6157708;23;20213;-82
2020/12/25 12:18:29;;;;;;;7.25;1.60;;;9.30;99.90;;;;;;6155922;23;20573;-82
2020/12/25 12:21:09;;;;;;;3.55;1.55;;;9.40;99.90;;;;;;6156836;23;20180;-82
2020/12/25 12:24:33;;;;;;;4.05;1.33;;;9.40;99.90;;;;;;6108275;23;20142;-82
2020/12/25 12:27:23;;;;;;;3.05;0.80;;;9.40;99.90;;;;;;6182706;23;20208;-82
2020/12/25 12:30:51;;;;;;;;;;;;;;;;;;;;;
2020/12/25 12:33:55;;;;;;;3.60;1.00;;;9.20;99.90;;;;;;6149693;23;20149;-82
2020/12/25 12:36:28;;;;;;;3.90;1.17;;;9.20;99.90;;;;;;6183213;23;20515;-81
2020/12/25 12:38:54;;;;;;;2.80;1.30;;;9.20;99.90;;;;;;6182349;23;20141;-81
2020/12/25 12:41:28;;;;;;;4.05;1.40;;;9.20;99.90;;;;;;6183050;23;20185;-82
2020/12/25 12:43:57;;;;;;;2.47;1.00;;;9.20;99.90;;;;;;6182204;23;20173;-82
2020/12/25 12:46:54;;;;;;;2.72;1.00;;;9.10;99.90;;;;;;6182468;23;20165;-82
2020/12/25 12:49:35;;;;;;;4.70;1.10;;;9.10;99.90;;;;;;6181977;23;20138;-82
2020/12/25 12:52:17;;;;;;;6.10;1.15;;;9.00;99.90;;;;;;6182581;23;20460;-81
2020/12/25 12:54:48;;;;;;;5.90;1.30;;;9.00;99.90;;;;;;6182663;23;20204;-82
2020/12/25 12:57:19;;;;;;;5.32;1.23;;;8.90;99.90;;;;;;6182343;23;20660;-82
2020/12/25 12:59:47;;;;;;;6.60;1.00;;;8.80;99.90;;;;;;6155816;23;20172;-82
2020/12/25 13:02:29;;;;;;;3.30;1.10;;;8.80;99.90;;;;;;6130870;23;20557;-82
2020/12/25 13:05:01;;;;;;;2.05;1.10;;;8.70;99.90;;;;;;6156618;23;20157;-81
2020/12/25 13:07:35;;;;;;;3.40;1.00;;;8.70;99.90;;;;;;6183448;23;20158;-82
2020/12/25 13:10:49;;;;;;;6.35;1.08;;;8.70;99.90;;;;;;6159012;23;20142;-81
2020/12/25 13:13:39;;;;;;;3.55;1.10;;;8.60;99.90;;;;;;6154445;23;20150;-82
2020/12/25 13:16:35;;;;;;;6.90;1.00;;;8.60;99.90;;;;;;6182388;23;20182;-81
2020/12/25 13:19:14;;;;;;;4.53;1.30;;;8.60;99.90;;;;;;6181422;23;20177;-82
2020/12/25 13:21:43;;;;;;;1.45;0.98;;;8.50;99.90;;;;;;6156001;23;20199;-81
2020/12/25 13:24:11;;;;;;;4.50;1.15;;;8.50;99.90;;;;;;6131520;23;20643;-84